Time;durP1;ratioP1;P1;durP2;ratioP2;P2;SDS_P1;SDS_P2;PMS_P1;PMS_P2;Temp;Humidity;BMP_temperature;BMP_pressure;BME280_temperature;BME280_humidity;BME280_pressure;Samples;Min_cycle;Max_cycle;Signal;HPM_P1;HPM_P2
2022/12/23 00:01:18;;;;;;;3.93;2.10;;;;;;;;;;5072333;28;20613;-83
2022/12/23 00:03:45;;;;;;;3.10;1.90;;;;;;;;;;5072562;28;20201;-82
2022/12/23 00:06:13;;;;;;;3.87;2.17;;;;;;;;;;5072275;28;20279;-83
2022/12/23 00:08:40;;;;;;;2.17;1.90;;;;;;;;;;5072730;28;20292;-83
2022/12/23 00:11:10;;;;;;;3.30;1.80;;;;;;;;;;5071832;28;20232;-82
2022/12/23 00:16:26;;;;;;;2.23;1.80;;;;;;;;;;5046004;28;20294;-83
2022/12/23 00:18:54;;;;;;;2.80;1.60;;;;;;;;;;5072280;28;20205;-82
2022/12/23 00:21:21;;;;;;;2.30;1.70;;;;;;;;;;5071838;28;20272;-82
2022/12/23 00:23:49;;;;;;;5.97;1.90;;;;;;;;;;5072503;28;20231;-83
2022/12/23 00:26:17;;;;;;;1.80;1.70;;;;;;;;;;5071957;28;20229;-82
2022/12/23 00:28:44;;;;;;;1.70;1.60;;;;;;;;;;5072081;28;20209;-83
2022/12/23 00:31:12;;;;;;;2.27;2.03;;;;;;;;;;5071656;28;20696;-82
2022/12/23 00:33:41;;;;;;;3.10;2.17;;;;;;;;;;5072569;28;20224;-83
2022/12/23 00:36:11;;;;;;;3.53;2.20;;;;;;;;;;5042918;28;20230;-83
2022/12/23 00:44:08;;;;;;;4.23;2.30;;;;;;;;;;5036342;28;20682;-83
2022/12/23 00:46:35;;;;;;;3.33;2.30;;;;;;;;;;5051786;28;20234;-82
2022/12/23 00:51:48;;;;;;;5.03;2.37;;;;;;;;;;5051694;28;20248;-83
2022/12/23 00:54:15;;;;;;;3.90;2.30;;;;;;;;;;5051919;28;20225;-83
2022/12/23 00:56:42;;;;;;;2.57;2.27;;;;;;;;;;5051814;28;20620;-83
2022/12/23 00:59:10;;;;;;;7.23;2.90;;;;;;;;;;5052150;28;20206;-82
2022/12/23 01:07:08;;;;;;;2.30;2.20;;;;;;;;;;5051634;28;20237;-82
2022/12/23 01:09:35;;;;;;;4.13;2.30;;;;;;;;;;5051594;28;20201;-82
2022/12/23 01:12:02;;;;;;;2.73;2.53;;;;;;;;;;5051448;28;20244;-82
2022/12/23 01:14:29;;;;;;;3.93;2.20;;;;;;;;;;5052186;28;20236;-82
2022/12/23 01:16:56;;;;;;;2.17;1.77;;;;;;;;;;5051449;28;20229;-83
2022/12/23 01:19:25;;;;;;;1.87;1.77;;;;;;;;;;5052031;28;20233;-81
2022/12/23 01:21:52;;;;;;;2.37;1.83;;;;;;;;;;5051171;28;20238;-82
2022/12/23 01:24:19;;;;;;;2.20;2.00;;;;;;;;;;5051861;28;20210;-82
2022/12/23 01:26:46;;;;;;;2.90;2.00;;;;;;;;;;5051218;28;20238;-82
2022/12/23 01:29:13;;;;;;;1.97;1.87;;;;;;;;;;5051757;28;20348;-83
2022/12/23 01:31:40;;;;;;;2.10;2.00;;;;;;;;;;5051041;28;20238;-82
2022/12/23 01:34:07;;;;;;;2.13;2.03;;;;;;;;;;5051772;28;20229;-82
2022/12/23 01:36:35;;;;;;;2.30;2.07;;;;;;;;;;5051323;28;20615;-82
2022/12/23 01:39:02;;;;;;;2.50;2.30;;;;;;;;;;5051260;28;20202;-82
2022/12/23 01:44:33;;;;;;;3.47;2.27;;;;;;;;;;5051595;28;20193;-82
2022/12/23 01:47:00;;;;;;;2.53;2.33;;;;;;;;;;5050978;28;20234;-83
2022/12/23 01:49:27;;;;;;;3.60;2.20;;;;;;;;;;5051614;28;20210;-82
2022/12/23 01:51:56;;;;;;;4.40;2.60;;;;;;;;;;5050802;28;20591;-82
2022/12/23 01:54:23;;;;;;;2.97;2.50;;;;;;;;;;5054550;28;20205;-82
2022/12/23 01:56:50;;;;;;;3.97;2.47;;;;;;;;;;5054644;28;20253;-82
2022/12/23 02:04:43;;;;;;;2.60;2.40;;;;;;;;;;5034625;28;20217;-83
2022/12/23 02:09:57;;;;;;;4.40;3.23;;;;;;;;;;5054590;28;20918;-82
2022/12/23 02:12:36;;;;;;;5.90;3.33;;;;;;;;;;5054019;28;20237;-82
2022/12/23 02:17:58;;;;;;;4.70;3.20;;;;;;;;;;5054494;28;20263;-82
2022/12/23 02:20:37;;;;;;;4.53;2.87;;;;;;;;;;5053997;28;20245;-82
2022/12/23 02:23:16;;;;;;;3.00;2.80;;;;;;;;;;5054817;28;20256;-82
2022/12/23 02:25:57;;;;;;;4.97;3.00;;;;;;;;;;5054336;28;20233;-83
2022/12/23 02:28:44;;;;;;;4.23;3.37;;;;;;;;;;5054529;28;20194;-82
2022/12/23 02:31:15;;;;;;;6.30;3.50;;;;;;;;;;5059930;28;20226;-83
2022/12/23 02:33:49;;;;;;;4.73;3.67;;;;;;;;;;5054442;28;20563;-82
2022/12/23 02:36:21;;;;;;;4.27;3.60;;;;;;;;;;5053949;28;20233;-82
2022/12/23 02:38:50;;;;;;;3.97;3.60;;;;;;;;;;5054342;28;20195;-82
2022/12/23 02:41:20;;;;;;;6.23;3.70;;;;;;;;;;5053570;28;20253;-81
2022/12/23 02:43:50;;;;;;;4.17;3.77;;;;;;;;;;5054186;28;20229;-82
2022/12/23 02:46:21;;;;;;;6.00;3.93;;;;;;;;;;5053379;28;20694;-82
2022/12/23 02:48:51;;;;;;;6.63;4.50;;;;;;;;;;5053916;28;20195;-83
2022/12/23 02:51:20;;;;;;;8.73;5.77;;;;;;;;;;5053558;28;20237;-82
2022/12/23 02:53:49;;;;;;;8.30;6.53;;;;;;;;;;5053869;28;20694;-83
2022/12/23 02:56:18;;;;;;;9.60;6.83;;;;;;;;;;5053599;28;20226;-82
2022/12/23 02:58:47;;;;;;;9.90;7.13;;;;;;;;;;5053813;28;20198;-82
2022/12/23 03:01:15;;;;;;;9.87;7.40;;;;;;;;;;5053491;28;20236;-83
2022/12/23 03:03:44;;;;;;;11.80;8.37;;;;;;;;;;5053655;28;20202;-83
2022/12/23 03:06:17;;;;;;;15.17;9.77;;;;;;;;;;5052475;28;20230;-83
2022/12/23 03:08:45;;;;;;;13.53;8.37;;;;;;;;;;5053158;28;20694;-83
2022/12/23 03:11:14;;;;;;;16.10;9.67;;;;;;;;;;5053191;28;20237;-82
2022/12/23 03:13:59;;;;;;;16.90;9.93;;;;;;;;;;5053288;28;20203;-83
2022/12/23 03:16:29;;;;;;;18.43;10.63;;;;;;;;;;5037097;28;20255;-83
2022/12/23 03:19:03;;;;;;;17.60;10.30;;;;;;;;;;5053599;28;20203;-83
2022/12/23 03:21:34;;;;;;;17.37;10.27;;;;;;;;;;5076292;22;20237;-81
2022/12/23 03:24:05;;;;;;;17.00;11.13;;;;;;;;;;5053062;28;20202;-81
2022/12/23 03:26:37;;;;;;;12.60;10.17;;;;;;;;;;5064929;28;20248;-81
2022/12/23 03:29:09;;;;;;;15.73;10.73;;;;;;;;;;5072697;28;20216;-81
2022/12/23 03:31:37;;;;;;;13.50;9.67;;;;;;;;;;5071133;28;20268;-80
2022/12/23 03:34:06;;;;;;;19.53;10.13;;;;;;;;;;5072795;28;20212;-81
2022/12/23 03:36:35;;;;;;;16.00;9.43;;;;;;;;;;5056211;28;20233;-81
2022/12/23 03:39:03;;;;;;;16.20;10.37;;;;;;;;;;5070347;28;20203;-80
2022/12/23 03:41:33;;;;;;;19.10;10.73;;;;;;;;;;5059774;28;20242;-80
2022/12/23 03:44:02;;;;;;;30.50;14.63;;;;;;;;;;5052717;28;20210;-81
2022/12/23 03:46:31;;;;;;;31.80;13.63;;;;;;;;;;5038418;28;20238;-80
2022/12/23 03:49:00;;;;;;;32.50;13.37;;;;;;;;;;5032221;28;20214;-81
2022/12/23 03:51:33;;;;;;;31.40;12.97;;;;;;;;;;5031922;28;20293;-80
2022/12/23 03:54:01;;;;;;;37.33;13.80;;;;;;;;;;5032749;28;20195;-80
2022/12/23 03:56:29;;;;;;;28.57;12.37;;;;;;;;;;5056814;28;20233;-80
2022/12/23 03:58:58;;;;;;;26.13;12.17;;;;;;;;;;5054643;28;20225;-80
2022/12/23 04:01:27;;;;;;;31.77;12.97;;;;;;;;;;5040104;28;20243;-80
2022/12/23 04:03:57;;;;;;;31.53;12.60;;;;;;;;;;5032073;28;20626;-80
2022/12/23 04:06:26;;;;;;;39.90;14.33;;;;;;;;;;5043423;28;20245;-80
2022/12/23 04:08:54;;;;;;;32.40;12.73;;;;;;;;;;5051838;28;20214;-80
2022/12/23 04:11:21;;;;;;;29.17;12.50;;;;;;;;;;5062667;28;20241;-80
2022/12/23 04:13:48;;;;;;;24.37;12.03;;;;;;;;;;5072195;28;20210;-80
2022/12/23 04:16:16;;;;;;;27.03;12.30;;;;;;;;;;5061181;28;20605;-80
2022/12/23 04:18:43;;;;;;;27.97;12.73;;;;;;;;;;5051464;28;20658;-80
2022/12/23 04:21:10;;;;;;;21.20;11.70;;;;;;;;;;5060624;28;20237;-80
2022/12/23 04:23:39;;;;;;;25.30;11.77;;;;;;;;;;5071780;28;20299;-80
2022/12/23 04:26:07;;;;;;;21.03;10.83;;;;;;;;;;5062718;28;20797;-80
2022/12/23 04:28:34;;;;;;;17.67;10.63;;;;;;;;;;5051658;28;20225;-80
2022/12/23 04:31:01;;;;;;;18.73;10.53;;;;;;;;;;5059536;28;20240;-80
2022/12/23 04:33:28;;;;;;;16.63;9.40;;;;;;;;;;5071851;28;20695;-80
2022/12/23 04:35:55;;;;;;;14.63;8.53;;;;;;;;;;5061617;28;20245;-80
2022/12/23 04:38:22;;;;;;;11.07;8.10;;;;;;;;;;5049069;28;20198;-80
2022/12/23 04:40:49;;;;;;;10.43;7.30;;;;;;;;;;5059212;28;20245;-80
2022/12/23 04:43:17;;;;;;;10.27;7.00;;;;;;;;;;5071981;28;20212;-80
2022/12/23 04:45:50;;;;;;;10.10;7.27;;;;;;;;;;5066630;28;20643;-80
2022/12/23 04:48:17;;;;;;;9.13;7.10;;;;;;;;;;5071017;28;20819;-80
2022/12/23 04:50:44;;;;;;;14.87;8.33;;;;;;;;;;5065171;28;20307;-80
2022/12/23 04:53:11;;;;;;;10.33;6.77;;;;;;;;;;5051489;28;20214;-80
2022/12/23 04:55:38;;;;;;;7.73;5.97;;;;;;;;;;5055767;28;20367;-80
2022/12/23 04:58:05;;;;;;;6.97;5.43;;;;;;;;;;5058775;28;20228;-80
2022/12/23 05:00:34;;;;;;;7.20;4.97;;;;;;;;;;5050718;28;20241;-80
2022/12/23 05:03:01;;;;;;;5.53;3.73;;;;;;;;;;5051251;28;20685;-80
2022/12/23 05:05:28;;;;;;;5.00;3.50;;;;;;;;;;5050973;28;20262;-80
2022/12/23 05:08:02;;;;;;;5.13;4.27;;;;;;;;;;5051215;28;20249;-80
2022/12/23 05:10:29;;;;;;;4.70;4.30;;;;;;;;;;5050808;28;20233;-80
2022/12/23 05:12:57;;;;;;;4.60;4.13;;;;;;;;;;5051169;28;20723;-80
2022/12/23 05:15:24;;;;;;;5.23;3.80;;;;;;;;;;5051017;28;20238;-80
2022/12/23 05:17:52;;;;;;;3.60;3.30;;;;;;;;;;5051270;28;20198;-80
2022/12/23 05:20:19;;;;;;;2.73;2.17;;;;;;;;;;5050535;28;20237;-80
2022/12/23 05:22:46;;;;;;;2.70;2.40;;;;;;;;;;5051013;28;20229;-80
2022/12/23 05:25:13;;;;;;;3.27;2.97;;;;;;;;;;5050921;28;20206;-80
2022/12/23 05:27:40;;;;;;;3.30;3.00;;;;;;;;;;5052548;28;20245;-80
2022/12/23 05:30:08;;;;;;;4.77;2.97;;;;;;;;;;5073696;28;20216;-80
2022/12/23 05:32:35;;;;;;;4.47;3.20;;;;;;;;;;5054839;28;20611;-79
2022/12/23 05:35:03;;;;;;;4.60;3.50;;;;;;;;;;5055250;28;20264;-79
2022/12/23 05:37:30;;;;;;;4.20;3.60;;;;;;;;;;5061054;28;20249;-79
2022/12/23 05:39:57;;;;;;;5.47;3.03;;;;;;;;;;5054683;28;20210;-79
2022/12/23 05:42:24;;;;;;;5.83;4.37;;;;;;;;;;5054541;28;20245;-79
2022/12/23 05:44:51;;;;;;;8.07;5.00;;;;;;;;;;5059345;28;20259;-79
2022/12/23 05:47:18;;;;;;;8.87;5.03;;;;;;;;;;5074185;28;20237;-79
2022/12/23 05:49:45;;;;;;;6.90;4.73;;;;;;;;;;5074593;28;20267;-79
2022/12/23 05:52:14;;;;;;;8.17;4.67;;;;;;;;;;5073754;28;20609;-79
2022/12/23 05:54:41;;;;;;;7.03;4.73;;;;;;;;;;5074638;28;20209;-80
2022/12/23 05:57:08;;;;;;;4.97;4.47;;;;;;;;;;5072862;28;20245;-80
2022/12/23 05:59:35;;;;;;;6.00;4.10;;;;;;;;;;5074218;28;20206;-81
2022/12/23 06:02:02;;;;;;;6.10;4.13;;;;;;;;;;5068054;28;20294;-80
2022/12/23 06:04:29;;;;;;;4.43;4.03;;;;;;;;;;5054286;28;20194;-80
2022/12/23 06:06:56;;;;;;;5.17;3.50;;;;;;;;;;5053637;28;20225;-78
2022/12/23 06:09:25;;;;;;;3.43;3.13;;;;;;;;;;5053926;28;20210;-80
2022/12/23 06:11:52;;;;;;;4.73;3.03;;;;;;;;;;5053391;28;20245;-78
2022/12/23 06:14:19;;;;;;;3.30;3.00;;;;;;;;;;5054283;28;20751;-78
2022/12/23 06:16:46;;;;;;;2.43;2.30;;;;;;;;;;5053362;28;20317;-78
2022/12/23 06:19:13;;;;;;;3.07;2.83;;;;;;;;;;5053973;28;20206;-78
2022/12/23 06:21:40;;;;;;;3.20;3.00;;;;;;;;;;5053187;28;20238;-78
2022/12/23 06:24:07;;;;;;;3.63;3.03;;;;;;;;;;5053932;28;20194;-78
2022/12/23 06:26:36;;;;;;;3.57;3.30;;;;;;;;;;5058997;28;20704;-78
2022/12/23 06:29:03;;;;;;;3.93;3.13;;;;;;;;;;5073828;28;20221;-78
2022/12/23 06:31:30;;;;;;;4.73;4.33;;;;;;;;;;5073278;28;20237;-78
2022/12/23 06:33:57;;;;;;;4.73;3.73;;;;;;;;;;5073785;28;20267;-78
2022/12/23 06:36:24;;;;;;;3.77;3.47;;;;;;;;;;5073413;28;20240;-78
2022/12/23 06:38:51;;;;;;;3.67;3.37;;;;;;;;;;5067814;28;20716;-78
2022/12/23 06:41:18;;;;;;;4.30;3.90;;;;;;;;;;5060681;28;20229;-78
2022/12/23 06:43:47;;;;;;;4.40;4.00;;;;;;;;;;5073460;28;20615;-78
2022/12/23 06:46:14;;;;;;;5.07;4.57;;;;;;;;;;5073249;28;20252;-78
2022/12/23 06:48:41;;;;;;;4.50;4.10;;;;;;;;;;5073004;28;20225;-78
2022/12/23 06:51:09;;;;;;;4.70;4.30;;;;;;;;;;5069129;28;20236;-78
2022/12/23 06:53:36;;;;;;;5.23;4.67;;;;;;;;;;5053525;28;20210;-78
2022/12/23 06:56:04;;;;;;;4.97;4.57;;;;;;;;;;5052869;28;20234;-78
2022/12/23 06:58:31;;;;;;;5.43;4.80;;;;;;;;;;5063219;28;20194;-78
2022/12/23 07:01:00;;;;;;;4.70;4.30;;;;;;;;;;5072480;28;20237;-78
2022/12/23 07:03:27;;;;;;;4.00;3.60;;;;;;;;;;5073288;28;20212;-78
2022/12/23 07:05:54;;;;;;;3.97;3.60;;;;;;;;;;5072708;28;20646;-78
2022/12/23 07:08:21;;;;;;;4.37;3.70;;;;;;;;;;5072848;28;20354;-78
2022/12/23 07:10:48;;;;;;;3.53;3.30;;;;;;;;;;5071650;28;20252;-78
2022/12/23 07:13:15;;;;;;;5.80;3.10;;;;;;;;;;5073070;28;20209;-78
2022/12/23 07:15:42;;;;;;;4.00;3.60;;;;;;;;;;5072170;28;20237;-78
2022/12/23 07:18:11;;;;;;;3.90;3.50;;;;;;;;;;5072658;28;20255;-78
2022/12/23 07:20:38;;;;;;;3.63;3.33;;;;;;;;;;5071252;28;20252;-78
2022/12/23 07:23:05;;;;;;;3.13;2.93;;;;;;;;;;5072715;28;20205;-78
2022/12/23 07:25:32;;;;;;;3.07;2.87;;;;;;;;;;5072196;28;20236;-78
2022/12/23 07:27:59;;;;;;;5.17;3.10;;;;;;;;;;5072364;28;20701;-78
2022/12/23 07:30:26;;;;;;;3.90;2.90;;;;;;;;;;5072387;28;20236;-78
2022/12/23 07:32:53;;;;;;;8.43;3.40;;;;;;;;;;5057746;28;20206;-78
2022/12/23 07:35:22;;;;;;;3.30;3.10;;;;;;;;;;5052225;28;20210;-78
2022/12/23 07:37:52;;;;;;;5.83;3.30;;;;;;;;;;5052228;28;20202;-78
2022/12/23 07:40:19;;;;;;;5.07;3.60;;;;;;;;;;5052377;28;20312;-78
2022/12/23 07:42:48;;;;;;;3.97;3.67;;;;;;;;;;5052312;28;20222;-78
2022/12/23 07:45:16;;;;;;;3.67;3.37;;;;;;;;;;5068877;28;20292;-78
2022/12/23 07:47:43;;;;;;;5.03;4.50;;;;;;;;;;5071653;28;20213;-78
2022/12/23 07:50:10;;;;;;;6.03;5.43;;;;;;;;;;5070770;28;20208;-78
2022/12/23 07:52:38;;;;;;;7.87;5.83;;;;;;;;;;5071960;28;20209;-78
2022/12/23 07:55:06;;;;;;;7.07;5.87;;;;;;;;;;5057767;28;20289;-78
2022/12/23 07:57:36;;;;;;;8.47;5.60;;;;;;;;;;5051824;28;20665;-78
2022/12/23 08:00:04;;;;;;;5.23;4.73;;;;;;;;;;5051952;28;20202;-78
2022/12/23 08:02:31;;;;;;;6.10;5.10;;;;;;;;;;5052238;28;20202;-78
2022/12/23 08:04:58;;;;;;;6.17;4.77;;;;;;;;;;5051889;28;20231;-78
2022/12/23 08:07:25;;;;;;;7.83;6.03;;;;;;;;;;5054401;28;20291;-78
2022/12/23 08:09:54;;;;;;;7.53;6.77;;;;;;;;;;5051483;28;20229;-78
2022/12/23 08:12:21;;;;;;;5.80;5.20;;;;;;;;;;5051575;28;20241;-79
2022/12/23 08:14:49;;;;;;;6.50;5.80;;;;;;;;;;5051475;28;20670;-78
2022/12/23 08:17:16;;;;;;;7.67;5.83;;;;;;;;;;5051119;28;20234;-78
2022/12/23 08:19:43;;;;;;;5.53;4.93;;;;;;;;;;5051606;28;20210;-80
2022/12/23 08:22:10;;;;;;;6.43;5.53;;;;;;;;;;5051394;28;20713;-80
2022/12/23 08:24:37;;;;;;;7.90;6.40;;;;;;;;;;5050162;28;20249;-81
2022/12/23 08:27:05;;;;;;;7.57;6.40;;;;;;;;;;5050193;28;20229;-78
2022/12/23 08:29:33;;;;;;;9.90;7.20;;;;;;;;;;5050109;28;20222;-79
2022/12/23 08:31:59;;;;;;;11.07;9.50;;;;;;;;;;5049765;28;20311;-81
2022/12/23 08:34:27;;;;;;;22.90;14.00;;;;;;;;;;5051436;28;20206;-80
2022/12/23 08:36:54;;;;;;;20.87;15.63;;;;;;;;;;5054047;28;20230;-80
2022/12/23 08:39:21;;;;;;;22.03;14.67;;;;;;;;;;5051894;28;20202;-80
2022/12/23 08:41:48;;;;;;;33.37;21.53;;;;;;;;;;5051527;28;20292;-80
2022/12/23 08:44:17;;;;;;;24.30;15.47;;;;;;;;;;5051636;28;20206;-80
2022/12/23 08:46:45;;;;;;;36.63;23.63;;;;;;;;;;5050963;28;20287;-80
2022/12/23 08:49:12;;;;;;;45.60;29.63;;;;;;;;;;5051503;28;20225;-80
2022/12/23 08:51:39;;;;;;;29.10;20.07;;;;;;;;;;5051266;28;20780;-80
2022/12/23 08:54:07;;;;;;;25.10;14.90;;;;;;;;;;5052060;28;20585;-80
2022/12/23 08:56:35;;;;;;;12.97;10.27;;;;;;;;;;5051205;28;20244;-80
2022/12/23 08:59:02;;;;;;;7.23;6.40;;;;;;;;;;5051254;28;20206;-80
2022/12/23 09:01:32;;;;;;;9.23;6.90;;;;;;;;;;5051196;28;20244;-80
2022/12/23 09:04:02;;;;;;;11.93;10.70;;;;;;;;;;5055360;28;20696;-80
2022/12/23 09:06:32;;;;;;;12.10;9.80;;;;;;;;;;5055532;28;20606;-80
2022/12/23 09:08:59;;;;;;;17.47;11.80;;;;;;;;;;5055863;28;20968;-79
2022/12/23 09:11:27;;;;;;;14.13;11.43;;;;;;;;;;5056219;28;20713;-78
2022/12/23 09:13:55;;;;;;;15.30;12.00;;;;;;;;;;5056706;28;20210;-77
2022/12/23 09:16:23;;;;;;;13.73;9.73;;;;;;;;;;5055901;28;20320;-77
2022/12/23 09:18:51;;;;;;;12.23;9.83;;;;;;;;;;5055078;28;20206;-77
2022/12/23 09:21:19;;;;;;;13.50;8.23;;;;;;;;;;5077607;22;20626;-80
2022/12/23 09:23:46;;;;;;;7.53;6.60;;;;;;;;;;5068135;28;20208;-80
2022/12/23 09:26:18;;;;;;;8.20;6.80;;;;;;;;;;5065659;28;20234;-80
2022/12/23 09:28:45;;;;;;;8.67;6.30;;;;;;;;;;5055861;28;20679;-80
2022/12/23 09:31:12;;;;;;;7.63;6.50;;;;;;;;;;5047884;28;20238;-82
2022/12/23 09:33:40;;;;;;;13.37;9.87;;;;;;;;;;5036113;28;20211;-82
2022/12/23 09:36:09;;;;;;;10.60;7.97;;;;;;;;;;5035593;28;20791;-81
2022/12/23 09:38:36;;;;;;;10.93;8.70;;;;;;;;;;5035707;28;20213;-82
2022/12/23 09:41:04;;;;;;;14.27;9.97;;;;;;;;;;5035474;28;20649;-82
2022/12/23 09:43:36;;;;;;;13.73;10.30;;;;;;;;;;5035412;28;20278;-81
2022/12/23 09:46:06;;;;;;;18.83;13.30;;;;;;;;;;5035018;28;20246;-81
2022/12/23 09:48:34;;;;;;;19.27;12.57;;;;;;;;;;5034961;28;20207;-81
2022/12/23 09:51:02;;;;;;;21.20;14.93;;;;;;;;;;5034690;28;20242;-81
2022/12/23 09:53:38;;;;;;;26.80;14.93;;;;;;;;;;5035232;28;20203;-81
2022/12/23 09:56:08;;;;;;;21.90;14.77;;;;;;;;;;5034399;28;20299;-81
2022/12/23 09:58:39;;;;;;;24.43;16.60;;;;;;;;;;5034905;28;20194;-81
2022/12/23 10:01:11;;;;;;;22.70;15.70;;;;;;;;;;5034604;28;20249;-81
2022/12/23 10:03:45;;;;;;;22.53;15.40;;;;;;;;;;5035237;28;20214;-80
2022/12/23 10:06:16;;;;;;;26.57;15.67;;;;;;;;;;5034294;28;20237;-80
2022/12/23 10:08:46;;;;;;;27.77;16.70;;;;;;;;;;5034643;28;20247;-81
2022/12/23 10:11:14;;;;;;;44.30;27.03;;;;;;;;;;5034373;28;20246;-82
2022/12/23 10:13:42;;;;;;;95.70;52.40;;;;;;;;;;5034227;28;20210;-80
2022/12/23 10:16:13;;;;;;;97.30;50.10;;;;;;;;;;5034195;28;20631;-82
2022/12/23 10:18:47;;;;;;;129.23;60.30;;;;;;;;;;5034808;28;20187;-84
2022/12/23 10:21:17;;;;;;;121.83;60.03;;;;;;;;;;5034341;28;20234;-82
2022/12/23 10:23:49;;;;;;;142.33;66.87;;;;;;;;;;5034410;28;20298;-81
2022/12/23 10:26:21;;;;;;;141.63;64.87;;;;;;;;;;5034349;28;20258;-81
2022/12/23 10:28:48;;;;;;;140.33;63.80;;;;;;;;;;5034270;28;20234;-81
2022/12/23 10:31:18;;;;;;;118.07;57.80;;;;;;;;;;5033880;28;20273;-82
2022/12/23 10:33:47;;;;;;;127.07;60.80;;;;;;;;;;5034557;28;20230;-82
2022/12/23 10:36:17;;;;;;;57.03;30.93;;;;;;;;;;5033697;28;20238;-82
2022/12/23 10:38:52;;;;;;;76.90;40.13;;;;;;;;;;5034129;28;20202;-82
2022/12/23 10:41:23;;;;;;;63.37;33.60;;;;;;;;;;5034026;28;20242;-82
2022/12/23 10:43:57;;;;;;;77.63;37.73;;;;;;;;;;5034189;28;20215;-82
2022/12/23 10:46:29;;;;;;;73.40;37.80;;;;;;;;;;5033497;28;20245;-81
2022/12/23 10:49:00;;;;;;;59.97;29.83;;;;;;;;;;5033869;28;20227;-81
2022/12/23 10:51:30;;;;;;;36.10;20.17;;;;;;;;;;5033653;28;20238;-82
2022/12/23 10:54:01;;;;;;;43.57;22.43;;;;;;;;;;5034137;28;20311;-85
2022/12/23 10:56:29;;;;;;;24.20;13.83;;;;;;;;;;5033859;28;20239;-82
2022/12/23 10:58:57;;;;;;;32.30;19.07;;;;;;;;;;5034078;28;20253;-82
2022/12/23 11:01:25;;;;;;;17.83;10.07;;;;;;;;;;5033341;28;20876;-81
2022/12/23 11:03:56;;;;;;;21.77;12.60;;;;;;;;;;5033875;28;20195;-81
2022/12/23 11:06:23;;;;;;;24.70;13.03;;;;;;;;;;5033295;28;20230;-82
2022/12/23 11:08:50;;;;;;;25.50;13.80;;;;;;;;;;5033638;28;20203;-81
2022/12/23 11:11:19;;;;;;;18.10;12.30;;;;;;;;;;5032928;28;20239;-82
2022/12/23 11:13:46;;;;;;;13.30;10.13;;;;;;;;;;5033723;28;20187;-81
2022/12/23 11:16:15;;;;;;;10.90;8.83;;;;;;;;;;5033111;28;20235;-81
2022/12/23 11:18:53;;;;;;;14.97;11.90;;;;;;;;;;5033442;28;20229;-81
2022/12/23 11:21:20;;;;;;;23.23;16.40;;;;;;;;;;5032690;28;20737;-81
2022/12/23 11:23:47;;;;;;;21.33;13.63;;;;;;;;;;5033290;28;20199;-81
2022/12/23 11:26:18;;;;;;;17.67;11.40;;;;;;;;;;5031987;28;20238;-81
2022/12/23 11:28:49;;;;;;;19.27;10.93;;;;;;;;;;5033148;28;20607;-82
2022/12/23 11:31:16;;;;;;;12.30;8.47;;;;;;;;;;5032725;28;20238;-82
2022/12/23 11:33:46;;;;;;;7.63;5.40;;;;;;;;;;5033369;28;20202;-81
2022/12/23 11:36:18;;;;;;;8.57;5.43;;;;;;;;;;5032822;28;20238;-81
2022/12/23 11:38:48;;;;;;;7.00;5.23;;;;;;;;;;5032838;28;20210;-81
2022/12/23 11:41:18;;;;;;;6.80;5.80;;;;;;;;;;5018749;28;20235;-82
2022/12/23 11:43:52;;;;;;;6.27;5.30;;;;;;;;;;5013141;28;20207;-81
2022/12/23 11:46:26;;;;;;;4.67;3.63;;;;;;;;;;5012702;28;20250;-81
2022/12/23 11:49:05;;;;;;;7.13;3.67;;;;;;;;;;5012685;28;20310;-81
2022/12/23 11:51:32;;;;;;;4.60;4.20;;;;;;;;;;5012535;28;20242;-81
2022/12/23 11:54:00;;;;;;;6.87;4.13;;;;;;;;;;5012710;28;20203;-81
2022/12/23 11:56:27;;;;;;;4.07;3.70;;;;;;;;;;5012310;28;20246;-82
2022/12/23 11:59:03;;;;;;;4.17;3.77;;;;;;;;;;5012906;28;20207;-82
2022/12/23 12:01:30;;;;;;;4.73;4.10;;;;;;;;;;5012631;28;20611;-84
2022/12/23 12:03:59;;;;;;;5.33;3.90;;;;;;;;;;5012592;28;20203;-82
2022/12/23 12:06:26;;;;;;;4.97;4.10;;;;;;;;;;5012058;28;20235;-83
2022/12/23 12:08:56;;;;;;;5.93;4.20;;;;;;;;;;5012634;28;20211;-82
2022/12/23 12:11:26;;;;;;;5.17;4.17;;;;;;;;;;5012082;28;20652;-83
2022/12/23 12:13:55;;;;;;;4.67;3.87;;;;;;;;;;5012849;28;20219;-82
2022/12/23 12:16:42;;;;;;;5.13;4.20;;;;;;;;;;5011803;28;20246;-82
2022/12/23 12:19:15;;;;;;;7.03;5.10;;;;;;;;;;5012591;28;20187;-81
2022/12/23 12:21:43;;;;;;;9.13;7.30;;;;;;;;;;5011822;28;20330;-82
2022/12/23 12:24:15;;;;;;;7.27;5.80;;;;;;;;;;5012699;28;20207;-83
2022/12/23 12:26:45;;;;;;;8.07;6.40;;;;;;;;;;5012097;28;20239;-82
2022/12/23 12:29:16;;;;;;;6.10;5.47;;;;;;;;;;5012455;28;20218;-81
2022/12/23 12:31:47;;;;;;;9.73;6.50;;;;;;;;;;5011749;28;20589;-82
2022/12/23 12:34:18;;;;;;;22.83;13.43;;;;;;;;;;5012403;28;20567;-82
2022/12/23 12:36:51;;;;;;;13.27;10.40;;;;;;;;;;5011310;28;20715;-82
2022/12/23 12:39:21;;;;;;;9.93;8.90;;;;;;;;;;5012347;28;20196;-81
2022/12/23 12:41:51;;;;;;;10.07;8.93;;;;;;;;;;5011817;28;20234;-82
2022/12/23 12:44:27;;;;;;;11.90;9.13;;;;;;;;;;5012038;28;20738;-81
2022/12/23 12:46:58;;;;;;;11.47;9.60;;;;;;;;;;5011460;28;20234;-81
2022/12/23 12:49:29;;;;;;;8.97;8.07;;;;;;;;;;5012279;28;20211;-81
2022/12/23 12:51:58;;;;;;;12.23;8.47;;;;;;;;;;5011805;28;20327;-81
2022/12/23 12:54:27;;;;;;;10.73;8.43;;;;;;;;;;5011972;28;20215;-81
2022/12/23 12:56:56;;;;;;;11.30;9.40;;;;;;;;;;5011467;28;20238;-83
2022/12/23 12:59:25;;;;;;;15.40;11.40;;;;;;;;;;5012054;28;20214;-81
2022/12/23 13:02:07;;;;;;;15.70;12.17;;;;;;;;;;5011368;28;20719;-82
2022/12/23 13:04:47;;;;;;;13.93;11.00;;;;;;;;;;5011825;28;20218;-81
2022/12/23 13:07:20;;;;;;;9.70;8.37;;;;;;;;;;5011394;28;20231;-81
2022/12/23 13:09:56;;;;;;;14.27;9.60;;;;;;;;;;5011322;28;20629;-82
2022/12/23 13:12:26;;;;;;;13.30;7.97;;;;;;;;;;5011251;28;20243;-82
2022/12/23 13:14:59;;;;;;;8.07;7.23;;;;;;;;;;5011651;28;20210;-82
2022/12/23 13:17:29;;;;;;;8.27;6.93;;;;;;;;;;5011353;28;20231;-82
2022/12/23 13:20:01;;;;;;;8.17;6.43;;;;;;;;;;5011359;28;20207;-82
2022/12/23 13:22:29;;;;;;;7.63;6.83;;;;;;;;;;5011215;28;20238;-82
2022/12/23 13:24:58;;;;;;;10.53;6.77;;;;;;;;;;5011746;28;20279;-81
2022/12/23 13:27:27;;;;;;;7.67;6.97;;;;;;;;;;5011239;28;20239;-82
2022/12/23 13:29:59;;;;;;;8.53;7.00;;;;;;;;;;5011750;28;20227;-81
2022/12/23 13:32:36;;;;;;;8.50;6.97;;;;;;;;;;5011284;28;20246;-81
2022/12/23 13:35:05;;;;;;;9.90;6.60;;;;;;;;;;5011582;28;20199;-81
2022/12/23 13:37:36;;;;;;;9.67;6.67;;;;;;;;;;5011588;28;20586;-81
2022/12/23 13:40:07;;;;;;;7.17;6.23;;;;;;;;;;5011281;28;20231;-81
2022/12/23 13:42:36;;;;;;;6.77;6.00;;;;;;;;;;5011651;28;20588;-81
2022/12/23 13:45:04;;;;;;;7.57;6.73;;;;;;;;;;5011495;28;20219;-82
2022/12/23 13:47:36;;;;;;;7.50;5.90;;;;;;;;;;5011558;28;20216;-82
2022/12/23 13:50:07;;;;;;;6.60;5.90;;;;;;;;;;5013529;28;20207;-81
2022/12/23 13:52:46;;;;;;;8.30;6.57;;;;;;;;;;5015310;28;20231;-82
2022/12/23 13:55:18;;;;;;;5.13;4.63;;;;;;;;;;5014977;28;20242;-84
2022/12/23 13:57:48;;;;;;;5.50;4.27;;;;;;;;;;5014975;28;20572;-82
2022/12/23 14:00:27;;;;;;;5.00;4.50;;;;;;;;;;5014654;28;20203;-84
2022/12/23 14:03:06;;;;;;;8.87;6.87;;;;;;;;;;5024998;28;20214;-84
2022/12/23 14:05:35;;;;;;;63.53;32.77;;;;;;;;;;5034184;28;20234;-82
2022/12/23 14:08:04;;;;;;;142.50;82.50;;;;;;;;;;5034849;28;20199;-82
2022/12/23 14:10:31;;;;;;;10.37;7.67;;;;;;;;;;5025931;28;20257;-81
2022/12/23 14:13:03;;;;;;;9.73;6.47;;;;;;;;;;5014614;28;20204;-82
2022/12/23 14:15:48;;;;;;;22.67;16.03;;;;;;;;;;5014440;28;20239;-83
2022/12/23 14:18:25;;;;;;;27.87;18.83;;;;;;;;;;5014722;28;20195;-83
2022/12/23 14:20:55;;;;;;;11.03;9.17;;;;;;;;;;5014012;28;20611;-82
2022/12/23 14:23:29;;;;;;;6.37;5.20;;;;;;;;;;5014857;28;20215;-82
2022/12/23 14:26:00;;;;;;;5.60;5.10;;;;;;;;;;5014133;28;20258;-82
2022/12/23 14:28:37;;;;;;;8.10;6.20;;;;;;;;;;5013850;28;20204;-82
2022/12/23 14:31:05;;;;;;;5.80;5.17;;;;;;;;;;5007132;28;20613;-82
2022/12/23 14:33:36;;;;;;;5.37;4.70;;;;;;;;;;5014375;28;20230;-82
2022/12/23 14:36:21;;;;;;;5.63;3.93;;;;;;;;;;5013941;28;20230;-82
2022/12/23 14:39:17;;;;;;;3.60;3.30;;;;;;;;;;5014376;28;20195;-82
2022/12/23 14:41:50;;;;;;;3.63;3.33;;;;;;;;;;5013360;28;20239;-82
2022/12/23 14:44:21;;;;;;;3.50;3.23;;;;;;;;;;5014291;28;20207;-82
2022/12/23 14:46:57;;;;;;;3.67;3.10;;;;;;;;;;5013795;28;20293;-82
2022/12/23 14:49:33;;;;;;;3.53;3.23;;;;;;;;;;5014133;28;20215;-83
2022/12/23 14:52:15;;;;;;;3.07;2.80;;;;;;;;;;5013380;28;20250;-83
2022/12/23 14:54:42;;;;;;;4.70;4.30;;;;;;;;;;4993730;28;20208;-83
2022/12/23 14:57:18;;;;;;;6.33;5.73;;;;;;;;;;4993880;28;20290;-83
2022/12/23 14:59:50;;;;;;;4.03;3.67;;;;;;;;;;5006010;28;20265;-82
2022/12/23 15:02:19;;;;;;;3.20;3.00;;;;;;;;;;5013660;28;20239;-83
2022/12/23 15:04:48;;;;;;;5.07;3.10;;;;;;;;;;5006281;28;20690;-83
2022/12/23 15:07:19;;;;;;;8.53;5.07;;;;;;;;;;5014268;28;20293;-81
2022/12/23 15:09:48;;;;;;;7.13;6.27;;;;;;;;;;5015659;28;20644;-78
2022/12/23 15:12:20;;;;;;;2.63;2.43;;;;;;;;;;5014262;28;20231;-81
2022/12/23 15:14:50;;;;;;;5.03;4.57;;;;;;;;;;5013846;28;20211;-78
2022/12/23 15:17:18;;;;;;;4.57;4.17;;;;;;;;;;5013472;28;20246;-79